LGTSLATI

Guest
Details From LGTS - Thessalonik Makedonia
To LATI - Tirana Rinas
Flight Number -
Tags generated
Created
Modified
Stats Distance 157 nm / 291 km
Max Altitude 16,300 ft / 4,968 m
Waypoints 3
Social Downloads 0
Likes 0
Share VATSIM

Download

Looking for another format? Having issues loading an existing format? Contact us
Advertisement - Login to hide

Notes

Basic altitude profile: - Ascent Rate: 2500ft/min - Ascent Speed: 250kts - Cruise Altitude: 35000ft - Cruise Speed: 420kts - Descent Rate: 1500ft/min - Descent Speed: 250kts Options: - Use NATs: yes - Use PACOTS: yes - Use low airways: yes - Use high airways: yes

Route

LGTS BITLA LATI

ID Type Via Altitude Latitude Longitude Leg Dist Tot Dist Heading (true) Name
O LGTS APT - 0 ft / 0 m 40.51952˚ 22.97202˚ - 0 nm - Thessalonik Makedonia
BITLA FIX - 16,300 ft / 4,968 m 40.87556˚ 21.35806˚ 76 nm 76 nm 287° / 286° -
O LATI APT - 0 ft / 0 m 41.41473˚ 19.72057˚ 80 nm 157 nm 294° / 293° Tirana Rinas

Altitude Profile

Advertisement - Login to hide

LGTS

Details ICAO LGTS (SKG)
Name Thessalonik Makedonia
Region Greece
Timezone Europe/Athens (UTC+2.0)
Stats Elevation 22 ft / 7 m (AMSL)
Location 40.519522° 22.972017°
Runways 2
Magnetic Variation 4.622° E

METAR

LGTS 131450Z 00000KT CAVOK 12/06 Q1017 NOSIG

Decode

TAF

TAF LGTS 131100Z 1312/1412 VRB03KT 9999 FEW030 BECMG 1320/1322 6000 FEW015 SCT030 BECMG 1403/1406 34010KT 9999 FEW030

Decode

Departure Runways

ID Width Length Bearing (true) Bearing (mag) Surface Threshold Offset Overrun Length
10 164 ft / 50 m 7,990 ft / 2,435 m 103.95° 99.33° Asphalt 0 ft / 0 m 150 ft / 46 m
16 197 ft / 60 m 7,927 ft / 2,416 m 166.35° 161.73° Asphalt 0 ft / 0 m 200 ft / 61 m
28 164 ft / 50 m 7,990 ft / 2,435 m 283.97° 279.35° Asphalt 0 ft / 0 m 150 ft / 46 m
34 197 ft / 60 m 7,927 ft / 2,416 m 346.36° 341.74° Asphalt 0 ft / 0 m 200 ft / 61 m

LATI

Details ICAO LATI (TIA)
Name Tirana Rinas
Region Albania
Timezone Europe/Tirane (UTC+1.0)
Stats Elevation 126 ft / 38 m (AMSL)
Location 41.414732° 19.720569°
Runways 1
Magnetic Variation 4.232° E

METAR

LATI 131520Z 18007KT 9999 SCT051 OVC110 16/07 Q1018 NOSIG

Decode

TAF

TAF TAF LATI 131100Z 1312/1412 18013KT 9999 FEW050 SCT100 TX19/1312Z TN07/1405Z TEMPO 1315/1318 RA FEW025CB BKN040 TEMPO 1318/1324 22012G26KT 3000 TSRA SCT020CB OVC030 BECMG 14002/1404 VRB04KT NS

Decode

Destination Runways

ID Width Length Bearing (true) Bearing (mag) Surface Threshold Offset Overrun Length
18 148 ft / 45 m 8,984 ft / 2,738 m 174.31° 170.08° Asphalt 500 ft / 152 m 0 ft / 0 m
36 148 ft / 45 m 8,984 ft / 2,738 m 354.31° 350.08° Asphalt 500 ft / 152 m 0 ft / 0 m